createdAt,value
2018-12-07T00:00:37.132Z,13.40
2018-12-07T00:01:43.577Z,13.40
2018-12-07T00:02:49.216Z,13.90
2018-12-07T00:03:54.943Z,15.77
2018-12-07T00:05:00.531Z,15.47
2018-12-07T00:06:06.120Z,15.37
2018-12-07T00:07:11.590Z,15.20
2018-12-07T00:08:17.132Z,14.27
2018-12-07T00:09:23.060Z,14.50
2018-12-07T00:10:28.831Z,15.57
2018-12-07T00:11:34.327Z,16.27
2018-12-07T00:12:41.007Z,15.80
2018-12-07T00:13:46.526Z,15.57
2018-12-07T00:14:52.122Z,15.70
2018-12-07T00:15:57.569Z,16.63
2018-12-07T00:17:03.167Z,15.43
2018-12-07T00:18:08.673Z,15.03
2018-12-07T00:19:15.070Z,15.50
2018-12-07T00:20:20.726Z,14.40
2018-12-07T00:21:26.268Z,16.20
2018-12-07T00:22:31.799Z,16.93
2018-12-07T00:23:38.404Z,16.17
2018-12-07T00:24:43.972Z,15.83
2018-12-07T00:25:51.613Z,16.27
2018-12-07T00:26:57.055Z,15.40
2018-12-07T00:28:02.685Z,15.07
2018-12-07T00:29:08.226Z,16.50
2018-12-07T00:30:13.662Z,16.93
2018-12-07T00:31:19.181Z,16.00
2018-12-07T00:32:25.067Z,16.90
2018-12-07T00:33:31.515Z,15.20
2018-12-07T00:34:36.959Z,16.17
2018-12-07T00:35:43.117Z,15.00
2018-12-07T00:36:48.884Z,15.47
2018-12-07T00:37:54.469Z,18.30
2018-12-07T00:38:59.942Z,17.87
2018-12-07T00:40:08.228Z,16.97
2018-12-07T00:41:13.843Z,16.70
2018-12-07T00:42:19.297Z,17.07
2018-12-07T00:43:24.967Z,16.20
2018-12-07T00:44:30.427Z,15.47
2018-12-07T00:45:36.323Z,17.10
2018-12-07T00:46:41.814Z,16.20
2018-12-07T00:47:47.304Z,17.80
2018-12-07T00:48:52.971Z,18.13
2018-12-07T00:49:58.445Z,17.07
2018-12-07T00:51:03.875Z,16.67
2018-12-07T00:52:09.326Z,15.50
2018-12-07T00:53:14.971Z,16.20
2018-12-07T00:54:20.616Z,16.43
2018-12-07T00:55:39.777Z,16.53
2018-12-07T00:56:45.345Z,16.50
2018-12-07T00:57:50.765Z,16.43
2018-12-07T00:58:56.320Z,16.40
2018-12-07T01:00:01.859Z,15.63
2018-12-07T01:01:07.273Z,16.40
2018-12-07T01:02:12.915Z,17.37
2018-12-07T01:03:18.352Z,17.23
2018-12-07T01:04:23.937Z,15.07
2018-12-07T01:05:29.717Z,15.30
2018-12-07T01:06:35.431Z,16.40
2018-12-07T01:07:41.107Z,16.33
2018-12-07T01:08:46.715Z,17.03
2018-12-07T01:09:52.211Z,16.67
2018-12-07T01:10:57.667Z,15.37
2018-12-07T01:12:03.143Z,14.27
2018-12-07T01:13:09.060Z,15.10
2018-12-07T01:14:14.757Z,16.23
2018-12-07T01:15:20.443Z,15.17
2018-12-07T01:16:26.011Z,14.17
2018-12-07T01:17:31.430Z,15.50
2018-12-07T01:18:37.102Z,15.60
2018-12-07T01:19:42.611Z,16.20
2018-12-07T01:20:48.068Z,16.00
2018-12-07T01:21:53.658Z,14.97
2018-12-07T01:22:59.255Z,16.07
2018-12-07T01:24:04.936Z,15.40
2018-12-07T01:25:10.427Z,15.17
2018-12-07T01:26:16.053Z,15.20
2018-12-07T01:27:21.555Z,15.30
2018-12-07T01:28:27.171Z,16.53
2018-12-07T01:29:32.616Z,14.40
2018-12-07T01:30:38.170Z,16.27
2018-12-07T01:31:44.087Z,15.00
2018-12-07T01:32:49.575Z,14.80
2018-12-07T01:33:55.192Z,16.00
2018-12-07T01:35:00.604Z,14.63
2018-12-07T01:36:06.351Z,15.93
2018-12-07T01:37:11.820Z,16.67
2018-12-07T01:38:17.361Z,14.77
2018-12-07T01:39:23.016Z,15.10
2018-12-07T01:40:28.589Z,15.63
2018-12-07T01:41:34.154Z,16.50
2018-12-07T01:42:39.609Z,16.30
2018-12-07T01:43:45.047Z,15.93
2018-12-07T01:44:50.587Z,15.37
2018-12-07T01:45:56.093Z,16.47
2018-12-07T01:47:01.596Z,16.40
2018-12-07T01:48:07.070Z,16.07
2018-12-07T01:49:12.663Z,15.57
2018-12-07T01:50:18.234Z,15.90
2018-12-07T01:51:23.776Z,17.87
2018-12-07T01:52:29.317Z,15.20
2018-12-07T01:53:35.067Z,14.33
2018-12-07T01:54:40.570Z,15.10
2018-12-07T01:55:46.127Z,16.10
2018-12-07T01:56:51.681Z,14.70
2018-12-07T01:57:57.219Z,14.93
2018-12-07T01:59:02.827Z,15.60
2018-12-07T02:00:09.247Z,14.70
2018-12-07T02:01:14.776Z,13.97
2018-12-07T02:02:20.393Z,16.67
2018-12-07T02:03:25.922Z,15.07
2018-12-07T02:04:31.568Z,14.57
2018-12-07T02:05:36.966Z,15.17
2018-12-07T02:06:42.460Z,14.70
2018-12-07T02:07:48.041Z,15.07
2018-12-07T02:08:53.527Z,13.53
2018-12-07T02:09:59.838Z,13.50
2018-12-07T02:11:05.370Z,15.57
2018-12-07T02:12:10.903Z,15.67
2018-12-07T02:13:16.324Z,13.43
2018-12-07T02:14:21.747Z,15.33
2018-12-07T02:15:27.222Z,13.33
2018-12-07T02:16:33.077Z,15.23
2018-12-07T02:17:38.584Z,14.57
2018-12-07T02:18:44.004Z,15.10
2018-12-07T02:19:49.471Z,14.57
2018-12-07T02:20:54.922Z,14.83
2018-12-07T02:22:00.345Z,14.30
2018-12-07T02:23:06.084Z,13.50
2018-12-07T02:24:11.586Z,13.67
2018-12-07T02:25:17.082Z,13.90
2018-12-07T02:26:22.635Z,13.50
2018-12-07T02:28:53.197Z,12.30
2018-12-07T02:29:58.803Z,13.47
2018-12-07T02:31:04.358Z,14.27
2018-12-07T02:32:10.008Z,12.43
2018-12-07T02:33:15.634Z,12.07
2018-12-07T02:34:21.183Z,12.83
2018-12-07T02:35:26.715Z,13.00
2018-12-07T02:36:32.167Z,13.40
2018-12-07T02:37:37.643Z,11.70
2018-12-07T02:38:43.319Z,13.37
2018-12-07T02:39:48.938Z,12.23
2018-12-07T02:40:54.435Z,12.40
2018-12-07T02:41:59.900Z,12.83
2018-12-07T02:43:05.453Z,12.13
2018-12-07T02:44:10.985Z,10.90
2018-12-07T02:45:16.777Z,11.20
2018-12-07T02:46:22.238Z,10.60
2018-12-07T02:47:28.165Z,12.37
2018-12-07T02:48:33.601Z,9.67
2018-12-07T02:49:39.079Z,10.50
2018-12-07T02:50:44.616Z,11.50
2018-12-07T02:51:50.059Z,11.33
2018-12-07T02:52:55.596Z,11.43
2018-12-07T02:54:01.308Z,10.57
2018-12-07T02:55:07.943Z,11.80
2018-12-07T02:56:13.450Z,11.67
2018-12-07T02:57:18.977Z,10.90
2018-12-07T02:58:24.410Z,9.27
2018-12-07T02:59:29.876Z,10.90
2018-12-07T03:00:35.340Z,10.07
2018-12-07T03:01:40.796Z,10.60
2018-12-07T03:02:46.299Z,9.30
2018-12-07T03:03:51.889Z,10.43
2018-12-07T03:04:57.383Z,9.67
2018-12-07T03:06:02.880Z,10.17
2018-12-07T03:07:08.360Z,8.80
2018-12-07T03:08:13.943Z,10.00
2018-12-07T03:09:19.440Z,10.17
2018-12-07T03:10:24.899Z,11.17
2018-12-07T03:11:30.321Z,10.43
2018-12-07T03:12:35.805Z,9.23
2018-12-07T03:13:41.391Z,8.50
2018-12-07T03:14:46.866Z,9.80
2018-12-07T03:15:52.509Z,9.10
2018-12-07T03:16:57.909Z,9.73
2018-12-07T03:18:03.816Z,8.30
2018-12-07T03:19:09.318Z,9.27
2018-12-07T03:20:15.047Z,8.70
2018-12-07T03:21:20.552Z,9.53
2018-12-07T03:22:25.953Z,9.43
2018-12-07T03:23:31.332Z,10.30
2018-12-07T03:24:36.793Z,9.50
2018-12-07T03:25:42.453Z,9.80
2018-12-07T03:26:47.956Z,9.20
2018-12-07T03:27:53.345Z,9.23
2018-12-07T03:28:58.892Z,8.77
2018-12-07T03:30:05.171Z,10.30
2018-12-07T03:31:10.613Z,9.53
2018-12-07T03:32:16.332Z,9.57
2018-12-07T03:33:21.951Z,8.70
2018-12-07T03:34:27.524Z,9.83
2018-12-07T03:35:32.952Z,10.17
2018-12-07T03:36:38.498Z,9.73
2018-12-07T03:37:44.121Z,10.10
2018-12-07T03:38:49.612Z,9.80
2018-12-07T03:39:55.124Z,9.47
2018-12-07T03:41:00.612Z,10.07
2018-12-07T03:42:06.234Z,10.50
2018-12-07T03:43:11.911Z,8.97
2018-12-07T03:44:17.428Z,9.33
2018-12-07T03:45:22.952Z,9.40
2018-12-07T03:46:28.483Z,9.77
2018-12-07T03:47:33.926Z,8.53
2018-12-07T03:48:39.629Z,9.13
2018-12-07T03:49:45.131Z,8.63
2018-12-07T03:50:50.715Z,9.87
2018-12-07T03:51:56.211Z,8.97
2018-12-07T03:53:01.790Z,9.03
2018-12-07T03:54:07.472Z,8.47
2018-12-07T03:55:12.919Z,8.90
2018-12-07T03:56:18.531Z,7.60
2018-12-07T03:57:24.020Z,9.40
2018-12-07T03:58:29.484Z,8.77
2018-12-07T03:59:35.018Z,8.87
2018-12-07T04:00:40.398Z,8.97
2018-12-07T04:01:45.793Z,8.37
2018-12-07T04:02:51.329Z,8.43
2018-12-07T04:03:56.847Z,9.63
2018-12-07T04:05:02.400Z,8.23
2018-12-07T04:06:08.062Z,8.30
2018-12-07T04:07:13.716Z,9.10
2018-12-07T04:08:19.265Z,9.47
2018-12-07T04:09:24.826Z,8.70
2018-12-07T04:10:30.363Z,8.30
2018-12-07T04:11:35.900Z,8.50
2018-12-07T04:12:41.391Z,7.63
2018-12-07T04:13:47.048Z,7.77
2018-12-07T04:14:52.585Z,7.00
2018-12-07T04:15:58.283Z,8.00
2018-12-07T04:17:10.314Z,8.07
2018-12-07T04:18:15.874Z,8.13
2018-12-07T04:19:21.398Z,8.80
2018-12-07T04:20:26.972Z,9.20
2018-12-07T04:21:32.436Z,7.97
2018-12-07T04:22:37.919Z,8.67
2018-12-07T04:23:43.400Z,8.43
2018-12-07T04:24:48.959Z,8.93
2018-12-07T04:25:54.399Z,9.33
2018-12-07T04:26:59.901Z,8.23
2018-12-07T04:28:05.435Z,8.97
2018-12-07T04:29:11.095Z,9.00
2018-12-07T04:30:29.302Z,8.57
2018-12-07T04:31:34.852Z,8.50
2018-12-07T04:32:40.415Z,9.10
2018-12-07T04:33:45.974Z,8.33
2018-12-07T04:34:51.532Z,9.00
2018-12-07T04:35:57.303Z,9.27
2018-12-07T04:37:02.923Z,9.20
2018-12-07T04:38:08.473Z,8.30
2018-12-07T04:39:14.060Z,9.87
2018-12-07T04:40:19.955Z,7.93
2018-12-07T04:41:25.437Z,9.30
2018-12-07T04:42:30.899Z,9.87
2018-12-07T04:43:36.576Z,8.60
2018-12-07T04:44:41.952Z,8.07
2018-12-07T04:45:47.487Z,7.47
2018-12-07T04:46:53.009Z,8.40
2018-12-07T04:47:58.614Z,8.37
2018-12-07T04:49:04.215Z,8.20
2018-12-07T04:50:10.040Z,7.87
2018-12-07T04:51:15.581Z,7.80
2018-12-07T04:52:21.071Z,9.20
2018-12-07T04:53:26.533Z,9.30
2018-12-07T04:54:32.215Z,8.87
2018-12-07T04:55:37.788Z,9.87
2018-12-07T04:56:43.235Z,8.63
2018-12-07T04:57:48.791Z,7.93
2018-12-07T04:58:54.193Z,9.10
2018-12-07T04:59:59.683Z,9.70
2018-12-07T05:01:05.257Z,9.93
2018-12-07T05:02:10.766Z,9.07
2018-12-07T05:03:16.336Z,9.77
2018-12-07T05:04:22.036Z,9.90
2018-12-07T05:05:27.652Z,9.20
2018-12-07T05:06:33.418Z,8.73
2018-12-07T05:07:38.933Z,9.60
2018-12-07T05:08:44.347Z,8.83
2018-12-07T05:09:49.910Z,8.00
2018-12-07T05:10:55.284Z,8.63
2018-12-07T05:12:00.792Z,8.60
2018-12-07T05:13:06.243Z,9.13
2018-12-07T05:14:11.699Z,9.73
2018-12-07T05:15:17.376Z,8.20
2018-12-07T05:16:22.806Z,8.60
2018-12-07T05:17:28.343Z,9.10
2018-12-07T05:18:33.903Z,9.13
2018-12-07T05:19:39.336Z,9.47
2018-12-07T05:20:45.039Z,9.07
2018-12-07T05:21:50.609Z,9.23
2018-12-07T05:22:56.142Z,10.03
2018-12-07T05:24:01.602Z,8.70
2018-12-07T05:25:07.318Z,9.17
2018-12-07T05:26:13.003Z,8.37
2018-12-07T05:27:18.682Z,8.60
2018-12-07T05:28:24.176Z,8.20
2018-12-07T05:29:29.729Z,8.70
2018-12-07T05:30:35.141Z,9.53
2018-12-07T05:31:40.663Z,7.70
2018-12-07T05:32:46.172Z,8.20
2018-12-07T05:33:51.665Z,9.50
2018-12-07T05:34:57.387Z,9.00
2018-12-07T05:36:03.010Z,9.17
2018-12-07T05:37:08.815Z,9.43
2018-12-07T05:38:14.465Z,9.37
2018-12-07T05:39:19.947Z,9.93
2018-12-07T05:40:25.494Z,10.40
2018-12-07T05:41:31.337Z,10.57
2018-12-07T05:42:36.848Z,8.70
2018-12-07T05:43:58.048Z,9.17
2018-12-07T05:45:03.696Z,8.57
2018-12-07T05:46:09.293Z,9.90
2018-12-07T05:47:14.730Z,9.17
2018-12-07T05:48:23.621Z,8.47
2018-12-07T05:49:28.026Z,7.83
2018-12-07T05:50:33.536Z,9.17
2018-12-07T05:51:39.012Z,9.23
2018-12-07T05:52:44.536Z,9.13
2018-12-07T05:53:50.118Z,9.07
2018-12-07T05:54:55.880Z,9.10
2018-12-07T05:56:01.368Z,8.53
2018-12-07T05:57:06.844Z,8.80
2018-12-07T05:58:12.263Z,8.70
2018-12-07T05:59:17.830Z,8.37
2018-12-07T06:00:23.587Z,8.80
2018-12-07T06:01:29.195Z,8.97
2018-12-07T06:02:34.743Z,9.73
2018-12-07T06:03:40.263Z,9.93
2018-12-07T06:04:45.684Z,8.80
2018-12-07T06:05:51.380Z,9.40
2018-12-07T06:06:56.876Z,9.30
2018-12-07T06:08:02.537Z,8.20
2018-12-07T06:09:08.977Z,9.33
2018-12-07T06:10:14.407Z,9.43
2018-12-07T06:11:19.893Z,9.27
2018-12-07T06:12:25.323Z,8.80
2018-12-07T06:13:30.880Z,8.23
2018-12-07T06:14:36.680Z,7.53
2018-12-07T06:15:42.144Z,9.07
2018-12-07T06:16:47.692Z,7.43
2018-12-07T06:17:53.115Z,7.93
2018-12-07T06:18:58.698Z,6.80
2018-12-07T06:20:04.800Z,7.60
2018-12-07T06:21:10.449Z,7.10
2018-12-07T06:22:16.052Z,7.40
2018-12-07T06:23:21.500Z,7.50
2018-12-07T06:24:27.018Z,7.57
2018-12-07T06:25:32.707Z,6.73
2018-12-07T06:26:38.189Z,7.03
2018-12-07T06:27:43.619Z,6.77
2018-12-07T06:28:49.104Z,7.07
2018-12-07T06:29:54.670Z,7.00
2018-12-07T06:31:00.284Z,6.47
2018-12-07T06:32:05.834Z,6.17
2018-12-07T06:33:11.439Z,6.87
2018-12-07T06:34:17.119Z,6.73
2018-12-07T06:35:22.743Z,6.87
2018-12-07T06:36:28.291Z,6.93
2018-12-07T06:37:33.835Z,6.53
2018-12-07T06:38:39.432Z,6.47
2018-12-07T06:39:44.871Z,7.37
2018-12-07T06:40:50.312Z,6.73
2018-12-07T06:41:55.932Z,7.43
2018-12-07T06:43:01.473Z,6.53
2018-12-07T06:44:06.899Z,6.60
2018-12-07T06:45:12.530Z,6.70
2018-12-07T06:46:18.156Z,6.57
2018-12-07T06:47:23.604Z,6.47
2018-12-07T06:48:29.376Z,7.20
2018-12-07T06:49:34.912Z,5.70
2018-12-07T06:50:40.280Z,6.27
2018-12-07T06:51:45.773Z,6.10
2018-12-07T06:52:51.276Z,6.30
2018-12-07T06:53:56.904Z,6.40
2018-12-07T06:55:02.478Z,5.67
2018-12-07T06:56:10.614Z,7.07
2018-12-07T06:57:16.357Z,6.30
2018-12-07T06:58:21.958Z,6.17
2018-12-07T06:59:27.499Z,6.03
2018-12-07T07:00:33.395Z,6.30
2018-12-07T07:01:38.907Z,7.13
2018-12-07T07:02:44.484Z,6.23
2018-12-07T07:03:50.977Z,6.40
2018-12-07T07:04:56.459Z,6.60
2018-12-07T07:06:02.020Z,7.03
2018-12-07T07:07:07.811Z,6.00
2018-12-07T07:08:13.491Z,7.57
2018-12-07T07:09:19.021Z,7.17
2018-12-07T07:10:24.507Z,7.40
2018-12-07T07:11:30.063Z,7.60
2018-12-07T07:12:35.540Z,6.23
2018-12-07T07:13:41.088Z,8.00
2018-12-07T07:14:46.538Z,6.93
2018-12-07T07:15:52.384Z,6.03
2018-12-07T07:16:57.839Z,7.33
2018-12-07T07:18:03.328Z,6.27
2018-12-07T07:19:08.912Z,5.37
2018-12-07T07:20:14.465Z,7.03
2018-12-07T07:21:20.000Z,6.50
2018-12-07T07:22:25.484Z,5.87
2018-12-07T07:23:31.146Z,6.07
2018-12-07T07:24:36.724Z,6.93
2018-12-07T07:25:42.155Z,6.20
2018-12-07T07:26:47.818Z,5.97
2018-12-07T07:27:53.335Z,6.70
2018-12-07T07:28:59.106Z,5.77
2018-12-07T07:30:06.514Z,6.47
2018-12-07T07:31:11.987Z,5.70
2018-12-07T07:32:17.444Z,6.23
2018-12-07T07:33:22.880Z,6.10
2018-12-07T07:34:28.511Z,6.40
2018-12-07T07:35:34.012Z,6.10
2018-12-07T07:36:39.559Z,6.80
2018-12-07T07:37:45.204Z,5.10
2018-12-07T07:38:50.666Z,6.20
2018-12-07T07:39:56.127Z,6.00
2018-12-07T07:41:01.785Z,6.50
2018-12-07T07:42:08.571Z,7.17
2018-12-07T07:43:14.087Z,6.30
2018-12-07T07:44:19.867Z,6.57
2018-12-07T07:45:25.295Z,7.20
2018-12-07T07:46:30.918Z,5.53
2018-12-07T07:47:36.440Z,6.60
2018-12-07T07:48:41.887Z,6.60
2018-12-07T07:49:47.460Z,6.80
2018-12-07T07:50:52.866Z,6.60
2018-12-07T07:51:58.531Z,6.87
2018-12-07T07:53:04.194Z,6.50
2018-12-07T07:54:09.715Z,7.50
2018-12-07T07:55:15.144Z,7.17
2018-12-07T07:56:20.617Z,6.57
2018-12-07T07:57:26.153Z,6.90
2018-12-07T07:58:31.732Z,7.27
2018-12-07T07:59:37.340Z,7.80
2018-12-07T08:00:42.906Z,6.90
2018-12-07T08:01:48.393Z,7.10
2018-12-07T08:02:53.903Z,7.33
2018-12-07T08:03:59.485Z,6.20
2018-12-07T08:05:05.681Z,7.13
2018-12-07T08:06:11.213Z,6.40
2018-12-07T08:07:16.768Z,6.83
2018-12-07T08:08:22.456Z,6.00
2018-12-07T08:09:27.927Z,5.53
2018-12-07T08:10:33.402Z,4.87
2018-12-07T08:11:38.840Z,5.33
2018-12-07T08:12:44.349Z,5.33
2018-12-07T08:13:49.901Z,5.63
2018-12-07T08:14:55.533Z,4.93
2018-12-07T08:16:00.972Z,5.00
2018-12-07T08:17:06.876Z,5.60
2018-12-07T08:18:12.399Z,4.23
2018-12-07T08:19:18.007Z,3.90
2018-12-07T08:20:23.575Z,4.20
2018-12-07T08:21:29.079Z,4.57
2018-12-07T08:22:34.515Z,4.30
2018-12-07T08:23:40.120Z,4.30
2018-12-07T08:24:46.293Z,4.50
2018-12-07T08:25:51.755Z,4.70
2018-12-07T08:26:57.211Z,4.10
2018-12-07T08:28:02.746Z,3.80
2018-12-07T08:29:08.305Z,4.27
2018-12-07T08:30:14.131Z,3.73
2018-12-07T08:31:19.917Z,4.07
2018-12-07T08:32:25.575Z,4.27
2018-12-07T08:33:31.059Z,4.10
2018-12-07T08:34:36.656Z,4.10
2018-12-07T08:35:42.351Z,4.37
2018-12-07T08:36:48.124Z,5.50
2018-12-07T08:37:53.566Z,4.67
2018-12-07T08:38:59.047Z,4.50
2018-12-07T08:40:06.584Z,5.47
2018-12-07T08:41:12.110Z,4.90
2018-12-07T08:42:17.662Z,5.50
2018-12-07T08:43:23.303Z,5.10
2018-12-07T08:44:28.988Z,6.30
2018-12-07T08:45:34.516Z,5.50
2018-12-07T08:46:40.148Z,5.07
2018-12-07T08:47:45.774Z,5.30
2018-12-07T08:48:51.402Z,5.17
2018-12-07T08:49:57.950Z,5.67
2018-12-07T08:51:03.533Z,5.67
2018-12-07T08:52:09.254Z,5.90
2018-12-07T08:53:14.753Z,5.93
2018-12-07T08:54:20.616Z,6.10
2018-12-07T08:55:26.242Z,5.53
2018-12-07T08:56:31.778Z,6.03
2018-12-07T08:57:37.311Z,5.43
2018-12-07T08:58:42.684Z,5.20
2018-12-07T08:59:48.263Z,5.00
2018-12-07T09:00:53.828Z,5.10
2018-12-07T09:01:59.220Z,5.50
2018-12-07T09:03:04.719Z,5.73
2018-12-07T09:04:10.255Z,5.57
2018-12-07T09:05:16.053Z,5.20
2018-12-07T09:06:21.524Z,5.60
2018-12-07T09:07:27.033Z,4.40
2018-12-07T09:08:32.606Z,4.20
2018-12-07T09:09:38.616Z,4.20
2018-12-07T09:10:44.335Z,4.10
2018-12-07T09:11:49.839Z,3.63
2018-12-07T09:12:55.448Z,4.07
2018-12-07T09:14:00.963Z,3.40
2018-12-07T09:15:07.432Z,4.10
2018-12-07T09:16:13.099Z,3.80
2018-12-07T09:17:18.587Z,3.23
2018-12-07T09:18:24.092Z,2.90
2018-12-07T09:19:29.563Z,4.10
2018-12-07T09:20:35.128Z,3.73
2018-12-07T09:21:40.671Z,3.30
2018-12-07T09:22:46.224Z,2.77
2018-12-07T09:23:51.823Z,3.23
2018-12-07T09:24:57.401Z,3.23
2018-12-07T09:26:02.845Z,2.90
2018-12-07T09:27:08.356Z,2.87
2018-12-07T09:28:13.809Z,3.13
2018-12-07T09:29:19.427Z,2.47
2018-12-07T09:30:24.883Z,2.70
2018-12-07T09:31:30.372Z,3.57
2018-12-07T09:32:36.028Z,3.00
2018-12-07T09:33:41.502Z,3.10
2018-12-07T09:34:46.965Z,2.70
2018-12-07T09:35:52.696Z,2.90
2018-12-07T09:36:58.344Z,3.13
2018-12-07T09:38:03.794Z,2.50
2018-12-07T09:39:11.029Z,3.03
2018-12-07T09:40:16.721Z,3.60
2018-12-07T09:41:22.235Z,3.00
2018-12-07T09:42:27.720Z,3.50
2018-12-07T09:43:33.176Z,3.87
2018-12-07T09:44:38.685Z,4.13
2018-12-07T09:45:44.359Z,3.43
2018-12-07T09:46:49.955Z,3.90
2018-12-07T09:47:55.557Z,3.33
2018-12-07T09:49:01.085Z,3.50
2018-12-07T09:50:08.359Z,3.77
2018-12-07T09:51:14.018Z,3.50
2018-12-07T09:52:19.567Z,4.20
2018-12-07T09:53:24.996Z,4.30
2018-12-07T09:54:30.569Z,4.37
2018-12-07T09:55:36.072Z,4.03
2018-12-07T09:56:41.536Z,4.17
2018-12-07T09:57:47.066Z,4.47
2018-12-07T09:58:52.709Z,3.93
2018-12-07T09:59:58.114Z,3.90
2018-12-07T10:01:03.552Z,4.20
2018-12-07T10:02:09.023Z,4.40
2018-12-07T10:03:14.555Z,4.70
2018-12-07T10:04:20.058Z,3.70
2018-12-07T10:05:25.517Z,4.40
2018-12-07T10:06:30.940Z,4.87
2018-12-07T10:07:36.401Z,4.73
2018-12-07T10:08:41.824Z,4.00
2018-12-07T10:09:47.289Z,4.80
2018-12-07T10:10:52.739Z,4.97
2018-12-07T10:11:58.276Z,4.63
2018-12-07T10:13:07.921Z,4.60
2018-12-07T10:14:11.319Z,5.33
2018-12-07T10:15:16.954Z,5.03
2018-12-07T10:16:22.497Z,5.30
2018-12-07T10:17:27.990Z,4.90
2018-12-07T10:18:33.581Z,4.43
2018-12-07T10:19:39.090Z,5.10
2018-12-07T10:20:44.547Z,8.00
2018-12-07T10:21:50.020Z,5.57
2018-12-07T10:22:55.475Z,5.73
2018-12-07T10:24:01.044Z,4.93
2018-12-07T10:25:07.168Z,5.20
2018-12-07T10:26:12.768Z,5.30
2018-12-07T10:27:18.172Z,5.80
2018-12-07T10:28:23.612Z,6.00
2018-12-07T10:29:29.051Z,5.77
2018-12-07T10:30:34.699Z,5.30
2018-12-07T10:31:40.205Z,5.93
2018-12-07T10:32:45.755Z,5.90
2018-12-07T10:33:51.251Z,5.37
2018-12-07T10:34:56.759Z,7.07
2018-12-07T10:36:02.252Z,6.60
2018-12-07T10:37:07.747Z,7.07
2018-12-07T10:38:13.348Z,6.57
2018-12-07T10:39:18.904Z,6.60
2018-12-07T10:40:24.455Z,6.87
2018-12-07T10:41:29.884Z,6.83
2018-12-07T10:42:35.511Z,6.53
2018-12-07T10:43:40.994Z,7.20
2018-12-07T10:44:46.487Z,6.30
2018-12-07T10:45:52.754Z,6.23
2018-12-07T10:46:58.161Z,7.47
2018-12-07T10:48:03.694Z,6.70
2018-12-07T10:49:09.354Z,6.90
2018-12-07T10:50:15.379Z,6.77
2018-12-07T10:51:20.823Z,6.73
2018-12-07T10:52:26.319Z,7.10
2018-12-07T10:53:31.857Z,7.47
2018-12-07T10:54:37.526Z,6.93
2018-12-07T10:55:42.886Z,7.37
2018-12-07T10:56:48.326Z,7.23
2018-12-07T10:57:53.893Z,7.10
2018-12-07T10:58:59.374Z,7.20
2018-12-07T11:00:08.195Z,7.43
2018-12-07T11:01:18.888Z,7.23
2018-12-07T11:02:29.540Z,6.20
2018-12-07T11:03:40.031Z,6.20
2018-12-07T11:04:50.714Z,6.27
2018-12-07T11:06:01.466Z,7.10
2018-12-07T11:07:12.057Z,6.03
2018-12-07T11:08:22.672Z,6.50
2018-12-07T11:09:33.235Z,6.27
2018-12-07T11:10:43.727Z,5.90
2018-12-07T11:11:54.471Z,6.40
2018-12-07T11:13:04.946Z,6.70
2018-12-07T11:14:13.477Z,5.80
2018-12-07T11:15:24.317Z,5.83
2018-12-07T11:16:35.279Z,6.47
2018-12-07T11:17:45.702Z,5.93
2018-12-07T11:18:56.418Z,5.63
2018-12-07T11:20:07.143Z,5.90
2018-12-07T11:21:17.716Z,5.77
2018-12-07T11:22:28.335Z,6.00
2018-12-07T11:24:36.648Z,6.63
2018-12-07T11:25:47.174Z,5.93
2018-12-07T11:26:57.719Z,4.63
2018-12-07T11:28:08.456Z,5.40
2018-12-07T11:29:19.170Z,6.10
2018-12-07T11:31:30.378Z,5.67
2018-12-07T11:33:40.751Z,5.70
2018-12-07T11:36:10.957Z,6.07
2018-12-07T11:37:16.591Z,5.30
2018-12-07T11:38:22.016Z,5.67
2018-12-07T11:39:27.583Z,6.63
2018-12-07T11:40:32.988Z,6.30
2018-12-07T11:41:38.595Z,5.60
2018-12-07T11:42:44.367Z,6.00
2018-12-07T11:43:49.807Z,6.90
2018-12-07T11:44:55.320Z,6.80
2018-12-07T11:46:00.870Z,6.10
2018-12-07T11:47:06.467Z,6.37
2018-12-07T11:48:12.371Z,5.60
2018-12-07T11:49:17.812Z,6.20
2018-12-07T11:50:23.551Z,5.87
2018-12-07T11:51:29.008Z,6.87
2018-12-07T11:52:34.452Z,6.40
2018-12-07T11:53:39.959Z,5.67
2018-12-07T11:54:45.569Z,6.20
2018-12-07T11:55:51.341Z,5.67
2018-12-07T11:56:56.978Z,6.37
2018-12-07T11:58:02.397Z,5.63
2018-12-07T11:59:07.904Z,5.87
2018-12-07T12:00:13.399Z,6.30
2018-12-07T12:01:18.918Z,5.03
2018-12-07T12:02:26.464Z,6.47
2018-12-07T12:03:31.936Z,5.40
2018-12-07T12:04:37.482Z,5.50
2018-12-07T12:05:43.025Z,5.40
2018-12-07T12:06:48.645Z,5.73
2018-12-07T12:07:54.057Z,5.70
2018-12-07T12:08:59.433Z,5.70
2018-12-07T12:10:06.101Z,5.93
2018-12-07T12:11:11.575Z,5.17
2018-12-07T12:12:17.014Z,5.27
2018-12-07T12:13:22.528Z,5.27
2018-12-07T12:14:28.007Z,5.60
2018-12-07T12:15:33.609Z,5.70
2018-12-07T12:16:39.039Z,4.70
2018-12-07T12:17:55.499Z,5.43
2018-12-07T12:19:01.121Z,4.70
2018-12-07T12:20:08.736Z,4.97
2018-12-07T12:21:14.116Z,4.90
2018-12-07T12:22:19.511Z,4.20
2018-12-07T12:23:24.895Z,4.60
2018-12-07T12:24:30.275Z,4.90
2018-12-07T12:25:35.935Z,4.60
2018-12-07T12:26:41.399Z,5.10
2018-12-07T12:27:47.900Z,4.30
2018-12-07T12:28:53.957Z,4.63
2018-12-07T12:29:59.470Z,4.87
2018-12-07T12:31:05.010Z,4.47
2018-12-07T12:32:10.582Z,4.83
2018-12-07T12:33:15.967Z,3.23
2018-12-07T12:34:21.464Z,3.70
2018-12-07T12:35:26.923Z,3.97
2018-12-07T12:36:33.001Z,3.50
2018-12-07T12:37:38.766Z,4.43
2018-12-07T12:38:44.146Z,3.47
2018-12-07T12:39:49.596Z,3.27
2018-12-07T12:40:54.971Z,3.37
2018-12-07T12:42:00.371Z,3.17
2018-12-07T12:43:05.835Z,3.53
2018-12-07T12:44:11.322Z,3.47
2018-12-07T12:45:16.874Z,3.40
2018-12-07T12:46:22.459Z,3.20
2018-12-07T12:47:27.997Z,3.03
2018-12-07T12:49:53.937Z,3.50
2018-12-07T12:51:00.762Z,3.30
2018-12-07T12:52:06.147Z,3.90
2018-12-07T12:53:11.632Z,2.93
2018-12-07T12:54:17.278Z,3.60
2018-12-07T12:55:22.844Z,3.40
2018-12-07T12:56:28.444Z,3.30
2018-12-07T12:57:34.009Z,3.10
2018-12-07T12:58:39.688Z,2.57
2018-12-07T12:59:45.161Z,3.37
2018-12-07T13:00:50.802Z,3.70
2018-12-07T13:01:56.551Z,3.30
2018-12-07T13:03:01.985Z,3.33
2018-12-07T13:04:07.467Z,4.00
2018-12-07T13:05:12.947Z,3.07
2018-12-07T13:06:18.512Z,3.27
2018-12-07T13:07:23.988Z,3.07
2018-12-07T13:08:29.475Z,3.30
2018-12-07T13:09:34.936Z,3.07
2018-12-07T13:10:40.448Z,3.40
2018-12-07T13:11:45.908Z,3.47
2018-12-07T13:12:51.335Z,3.20
2018-12-07T13:13:56.999Z,4.07
2018-12-07T13:15:02.756Z,3.20
2018-12-07T13:16:08.155Z,3.17
2018-12-07T13:17:13.656Z,3.00
2018-12-07T13:18:19.115Z,3.27
2018-12-07T13:19:24.745Z,3.50
2018-12-07T13:20:30.293Z,3.30
2018-12-07T13:21:35.770Z,3.13
2018-12-07T13:22:42.105Z,3.00
2018-12-07T13:23:47.576Z,2.70
2018-12-07T13:24:52.970Z,3.27
2018-12-07T13:25:58.479Z,3.60
2018-12-07T13:27:03.939Z,3.17
2018-12-07T13:28:09.427Z,2.50
2018-12-07T13:29:14.868Z,2.77
2018-12-07T13:30:20.342Z,3.50
2018-12-07T13:31:25.763Z,2.47
2018-12-07T13:32:31.238Z,3.35
2018-12-07T13:33:36.916Z,2.63
2018-12-07T13:34:42.407Z,2.90
2018-12-07T13:35:47.944Z,2.40
2018-12-07T13:36:53.362Z,2.53
2018-12-07T13:37:58.772Z,2.57
2018-12-07T13:39:07.407Z,2.53
2018-12-07T13:40:12.896Z,2.70
2018-12-07T13:41:18.409Z,2.40
2018-12-07T13:42:23.853Z,3.03
2018-12-07T13:43:29.349Z,2.60
2018-12-07T13:44:35.177Z,2.53
2018-12-07T13:45:40.742Z,2.87
2018-12-07T13:46:46.943Z,2.60
2018-12-07T13:47:52.823Z,2.87
2018-12-07T13:48:58.510Z,3.73
2018-12-07T13:50:10.599Z,5.30
2018-12-07T13:51:16.152Z,5.10
2018-12-07T13:52:21.681Z,10.40
2018-12-07T13:53:27.781Z,6.50
2018-12-07T13:54:33.472Z,5.70
2018-12-07T13:55:39.399Z,4.60
2018-12-07T13:56:45.051Z,5.67
2018-12-07T13:57:50.759Z,5.90
2018-12-07T13:58:56.326Z,5.00
2018-12-07T14:00:02.153Z,4.30
2018-12-07T14:01:07.957Z,3.90
2018-12-07T14:02:13.425Z,4.20
2018-12-07T14:03:18.873Z,4.57
2018-12-07T14:04:24.640Z,4.70
2018-12-07T14:05:32.327Z,4.00
2018-12-07T14:06:37.805Z,3.90
2018-12-07T14:07:43.422Z,4.00
2018-12-07T14:08:49.079Z,4.33
2018-12-07T14:09:54.816Z,4.00
2018-12-07T14:11:03.345Z,4.03
2018-12-07T14:12:09.611Z,3.60
2018-12-07T14:13:15.215Z,3.90
2018-12-07T14:14:20.909Z,3.93
2018-12-07T14:15:26.784Z,4.73
2018-12-07T14:16:32.459Z,4.30
2018-12-07T14:17:38.018Z,4.27
2018-12-07T14:18:43.897Z,4.20
2018-12-07T14:19:49.459Z,3.90
2018-12-07T14:20:55.043Z,3.53
2018-12-07T14:22:01.107Z,4.23
2018-12-07T14:23:06.711Z,4.30
2018-12-07T14:24:12.577Z,4.67
2018-12-07T14:25:18.381Z,3.50
2018-12-07T14:26:24.143Z,3.40
2018-12-07T14:27:29.793Z,3.53
2018-12-07T14:28:35.428Z,3.27
2018-12-07T14:29:41.175Z,2.80
2018-12-07T14:30:46.968Z,3.10
2018-12-07T14:31:52.522Z,3.10
2018-12-07T14:32:58.185Z,2.57
2018-12-07T14:34:03.862Z,3.03
2018-12-07T14:35:09.891Z,3.33
2018-12-07T14:36:15.544Z,2.97
2018-12-07T14:37:21.513Z,2.20